Latest Weather Observations for Toowoomba

IDQ60801

Issued at 9:02 pm EST Saturday 16 December 2017 (issued every 30 minutes, with the page automatically refreshed every 10 minutes)

About weather observations | Map of weather stations | Latest weather observations for QLD | Other Formats
Station Details ID: 041529 Name: TOOWOOMBA AIRPORT Lat: -27.54 Lon: 151.91 Height: 640.9 m
Data from the previous 72 hours. | See also: Recent months at Toowoomba
Date/Time
EST
Temp
°C
App
Temp
°C
Dew
Point
°C
Rel
Hum
%
Delta-T
°C
Wind Press
QNH
hPa
Press
MSL
hPa
Rain since
9am
mm
Dir  Spd
km/h
Gust
km/h
Spd
kts
Gust
kts
16/09:00pm 21.0 17.6 17.8 82 2.0 E 32 41 17 22 1018.7 1015.2 0.0
16/08:30pm 22.0 18.9 17.6 76 2.8 E 30 41 16 22 1018.4 1015.0 0.0
16/08:00pm 22.6 20.2 17.3 72 3.4 E 26 33 14 18 1018.2 1014.8 0.0
16/07:30pm 23.2 20.7 17.0 68 3.9 E 26 32 14 17 1018.0 1014.6 0.0
16/07:00pm 24.1 21.5 16.9 64 4.6 E 26 33 14 18 1017.7 1014.3 0.0
16/06:30pm 25.2 22.7 16.1 57 5.7 E 24 32 13 17 1017.2 1013.7 0.0
16/06:00pm 26.7 24.3 14.5 47 7.5 E 20 26 11 14 1017.0 1013.5 0.0
16/05:30pm 27.3 24.7 15.0 47 7.6 E 22 30 12 16 1016.6 1013.2 0.0
16/05:00pm 27.6 25.9 14.6 45 8.0 E 17 26 9 14 1016.4 1013.0 0.0
16/04:30pm 27.9 25.7 14.9 45 8.1 E 20 30 11 16 1016.4 1013.0 0.0
16/04:00pm 28.1 26.2 14.3 42 8.5 ENE 17 28 9 15 1016.5 1013.1 0.0
16/03:30pm 28.5 26.6 14.3 41 8.8 ESE 17 28 9 15 1016.7 1013.3 0.0
16/03:00pm 28.5 26.3 14.3 41 8.8 ESE 19 28 10 15 1017.1 1013.6 0.0
16/02:30pm 28.3 26.3 13.8 41 8.9 E 17 28 9 15 1017.5 1014.1 0.0
16/02:00pm 28.3 27.2 15.2 44 8.2 ENE 15 20 8 11 1017.8 1014.4 0.0
16/01:30pm 27.3 26.1 14.0 44 8.1 E 13 20 7 11 1018.2 1014.8 0.0
16/01:00pm 26.9 25.9 14.6 46 7.6 ESE 13 22 7 12 1018.6 1015.1 0.0
16/12:30pm 26.5 25.1 14.6 48 7.3 ENE 15 22 8 12 1019.1 1015.7 0.0
16/12:00pm 26.0 24.6 14.5 49 7.0 ENE 15 24 8 13 1019.5 1016.1 0.0
16/11:30am 25.4 23.7 14.8 52 6.5 ENE 17 26 9 14 1019.8 1016.4 0.0
16/11:00am 25.7 24.8 14.8 51 6.7 NE 13 22 7 12 1020.1 1016.7 0.0
16/10:30am 25.0 23.3 14.8 53 6.3 E 17 26 9 14 1020.4 1017.0 0.0
16/10:00am 24.5 23.1 16.5 61 5.0 ENE 19 26 10 14 1020.5 1017.1 0.0
16/09:30am 23.7 22.0 16.2 63 4.7 ENE 20 32 11 17 1020.4 1017.0 0.0
16/09:00am 22.7 21.2 16.7 69 3.8 ENE 20 30 11 16 1020.6 1017.2 0.0
16/08:38am 22.2 21.1 17.8 76 2.8 ENE 20 28 11 15 1020.5 1017.1 0.0
16/08:30am 21.7 21.2 17.7 78 2.5 ENE 17 26 9 14 1020.5 1017.1 0.0
16/08:00am 20.9 20.0 18.3 85 1.7 ENE 20 28 11 15 1020.4 1017.0 0.0
16/07:30am 19.5 18.7 18.0 91 1.0 ENE 19 24 10 13 1020.1 1016.7 0.0
16/07:00am 18.7 18.4 18.2 97 0.3 ENE 17 22 9 12 1019.8 1016.4 0.0
16/06:30am 18.5 17.8 18.2 98 0.2 ENE 19 26 10 14 1019.4 1016.0 0.0
16/06:00am 18.3 17.9 18.1 99 0.1 ENE 17 22 9 12 1019.0 1015.6 0.0
16/05:30am 18.2 17.8 18.0 99 0.1 ENE 17 24 9 13 1018.6 1015.1 0.0
16/05:00am 18.2 17.7 17.7 97 0.3 ENE 17 24 9 13 1018.1 1014.7 0.0
16/04:49am 18.2 17.3 17.7 97 0.3 ENE 19 24 10 13 1018.1 1014.7 0.0
16/04:30am 18.1 17.6 17.9 99 0.1 ENE 17 24 9 13 1018.0 1014.6 0.0
16/04:28am 18.1 17.6 17.9 99 0.1 ENE 17 24 9 13 1018.0 1014.6 0.0
16/04:00am 18.2 17.1 17.7 97 0.3 E 20 28 11 15 1017.6 1014.2 0.0
16/03:30am 18.2 16.4 17.9 98 0.2 ENE 24 33 13 18 1017.3 1013.8 0.0
16/03:22am 18.2 16.5 18.0 99 0.1 ENE 24 33 13 18 1017.2 1013.7 0.0
16/03:07am 18.1 16.2 17.6 97 0.3 ENE 24 32 13 17 1017.2 1013.7 0.0
16/03:00am 18.2 16.3 17.6 96 0.4 ENE 24 32 13 17 1017.4 1014.0 0.0
16/02:30am 18.3 16.9 18.0 98 0.2 E 22 30 12 16 1017.3 1013.8 0.0
16/02:00am 18.4 17.1 18.1 98 0.2 E 22 30 12 16 1017.3 1013.8 0.0
16/01:30am 18.5 18.0 17.9 96 0.4 ENE 17 20 9 11 1017.6 1014.2 0.0
16/01:00am 18.4 17.6 17.9 97 0.3 E 19 24 10 13 1017.7 1014.3 0.0
16/12:30am 18.7 18.5 17.7 94 0.6 E 15 22 8 12 1017.8 1014.4 0.0
16/12:00am 18.7 17.8 17.7 94 0.6 E 19 26 10 14 1017.8 1014.4 0.0
 
Date/Time
EST
Temp
°C
App
Temp
°C
Dew
Point
°C
Rel
Hum
%
Delta-T
°C
Wind Press
QNH
hPa
Press
MSL
hPa
Rain since
9am
mm
Dir  Spd
km/h
Gust
km/h
Spd
kts
Gust
kts
15/11:30pm 18.7 17.7 17.5 93 0.8 E 19 26 10 14 1017.9 1014.5 0.0
15/11:26pm 18.7 17.6 17.4 92 0.8 E 19 26 10 14 1017.9 1014.5 0.0
15/11:00pm 18.7 16.9 16.9 89 1.1 E 22 30 12 16 1017.9 1014.5 0.0
15/10:30pm 19.2 17.3 16.6 85 1.6 E 22 30 12 16 1018.0 1014.6 0.0
15/10:00pm 19.6 17.5 16.1 80 2.1 E 22 28 12 15 1017.9 1014.5 0.0
15/09:30pm 20.1 17.5 15.9 77 2.6 E 24 30 13 16 1017.7 1014.3 0.0
15/09:00pm 20.6 18.3 15.8 74 2.9 E 22 26 12 14 1017.6 1014.2 0.0
15/08:30pm 21.5 19.7 16.0 71 3.4 E 20 26 11 14 1017.4 1014.0 0.0
15/08:00pm 22.3 20.8 16.3 69 3.7 E 19 22 10 12 1017.2 1013.7 0.0
15/07:30pm 23.0 21.4 16.1 65 4.3 E 19 24 10 13 1016.7 1013.3 0.0
15/07:00pm 23.9 21.8 16.2 62 4.8 E 22 30 12 16 1016.2 1012.8 0.0
15/06:30pm 25.5 23.1 14.3 50 6.8 ENE 20 24 11 13 1015.9 1012.4 0.0
15/06:00pm 26.2 23.7 14.0 47 7.4 ENE 20 26 11 14 1015.3 1011.8 0.0
15/05:30pm 26.6 23.6 13.7 45 7.8 ENE 22 32 12 17 1014.8 1011.4 0.0
15/05:00pm 27.5 24.7 14.2 44 8.2 E 22 30 12 16 1014.4 1010.9 0.0
15/04:30pm 28.0 24.4 12.0 37 9.5 E 22 32 12 17 1014.2 1010.7 0.0
15/04:00pm 28.5 24.9 10.7 33 10.4 E 20 30 11 16 1014.2 1010.7 0.0
15/03:30pm 28.0 23.9 11.5 35 9.7 E 24 32 13 17 1014.3 1010.8 0.0
15/03:00pm 28.4 25.2 13.1 39 9.3 E 22 37 12 20 1014.3 1010.8 0.0
15/02:30pm 28.3 25.5 12.6 38 9.4 E 19 32 10 17 1014.5 1011.0 0.0
15/02:00pm 28.3 25.4 13.0 39 9.3 E 20 28 11 15 1014.7 1011.3 0.0
15/01:30pm 27.2 24.2 12.0 38 9.0 ENE 19 30 10 16 1015.0 1011.6 0.0
15/01:00pm 27.5 25.6 14.2 44 8.2 E 17 32 9 17 1015.5 1012.0 0.0
15/12:30pm 27.1 25.4 14.8 47 7.6 E 17 26 9 14 1015.9 1012.4 0.0
15/12:00pm 26.8 25.3 15.2 49 7.2 E 17 26 9 14 1016.3 1012.9 0.0
15/11:30am 25.1 23.7 14.6 52 6.4 E 15 24 8 13 1016.5 1013.1 0.0
15/11:00am 25.0 23.8 16.2 58 5.5 ENE 17 24 9 13 1016.7 1013.3 0.0
15/10:30am 25.1 24.9 16.8 60 5.3 E 13 20 7 11 1017.1 1013.6 0.0
15/10:00am 23.5 22.8 16.5 65 4.4 ENE 15 22 8 12 1017.3 1013.8 0.0
15/09:30am 22.9 21.8 16.4 67 4.1 ENE 17 24 9 13 1017.5 1014.1 0.0
15/09:00am 22.6 21.5 16.4 68 3.9 ENE 17 22 9 12 1017.5 1014.1 0.0
15/08:30am 21.1 20.1 16.5 75 2.9 NE 17 22 9 12 1017.6 1014.2 0.0
15/08:00am 20.5 19.4 16.3 77 2.6 ENE 17 24 9 13 1017.5 1014.1 0.0
15/07:30am 19.6 17.8 16.1 80 2.2 ENE 20 24 11 13 1017.4 1014.0 0.0
15/07:00am 19.2 17.9 16.8 86 1.5 ENE 19 24 10 13 1017.3 1013.8 0.0
15/06:30am 18.3 17.3 16.6 90 1.0 ENE 17 22 9 12 1016.9 1013.4 0.0
15/06:00am 17.0 16.1 16.8 99 0.1 E 17 22 9 12 1016.5 1013.1 0.0
15/05:30am 16.7 16.0 16.5 99 0.1 ENE 15 17 8 9 1016.2 1012.8 0.0
15/05:00am 16.4 16.4 16.2 99 0.1 ENE 11 15 6 8 1015.9 1012.4 0.0
15/04:31am 16.6 15.9 16.4 99 0.1 E 15 19 8 10 1015.6 1012.1 0.0
15/04:30am 16.6 16.3 16.4 99 0.1 E 13 19 7 10 1015.6 1012.1 0.0
15/04:00am 16.8 16.6 16.6 99 0.1 E 13 19 7 10 1015.4 1011.9 0.0
15/03:30am 17.0 16.5 16.8 99 0.1 ENE 15 19 8 10 1015.1 1011.7 0.0
15/03:00am 17.1 17.0 16.9 99 0.1 E 13 17 7 9 1015.1 1011.7 0.0
15/02:46am 17.0 16.8 16.8 99 0.1 E 13 17 7 9 1015.1 1011.7 0.0
15/02:30am 16.9 16.7 16.7 99 0.1 E 13 17 7 9 1015.3 1011.8 0.0
15/02:00am 17.0 16.1 16.8 99 0.1 E 17 20 9 11 1015.4 1011.9 0.0
15/01:30am 17.1 15.8 16.9 99 0.1 E 19 22 10 12 1015.1 1011.7 0.0
15/01:00am 17.2 16.2 16.7 97 0.3 E 17 20 9 11 1015.3 1011.8 0.0
15/12:30am 17.5 16.0 16.7 95 0.5 E 20 22 11 12 1015.5 1012.0 0.0
15/12:00am 17.7 16.7 16.6 93 0.7 E 17 20 9 11 1015.9 1012.4 0.0
 
Date/Time
EST
Temp
°C
App
Temp
°C
Dew
Point
°C
Rel
Hum
%
Delta-T
°C
Wind Press
QNH
hPa
Press
MSL
hPa
Rain since
9am
mm
Dir  Spd
km/h
Gust
km/h
Spd
kts
Gust
kts
14/11:30pm 18.0 16.9 16.3 90 1.0 E 17 20 9 11 1016.1 1012.7 0.0
14/11:00pm 18.4 17.2 16.0 86 1.5 ESE 17 19 9 10 1016.2 1012.8 0.0
14/10:30pm 19.0 17.7 15.7 81 2.0 E 17 24 9 13 1016.2 1012.8 0.0
14/10:00pm 19.4 18.4 15.7 79 2.3 E 15 20 8 11 1016.4 1013.0 0.0
14/09:30pm 20.3 19.0 14.9 71 3.3 ENE 15 19 8 10 1016.4 1013.0 0.0
14/09:00pm 20.7 19.4 14.8 69 3.6 ENE 15 19 8 10 1016.1 1012.7 0.0
14/08:30pm 21.6 21.0 14.7 65 4.2 ENE 11 13 6 7 1015.8 1012.3 0.0
14/08:00pm 22.4 21.4 14.5 61 4.8 NE 13 17 7 9 1015.6 1012.1 0.0
14/07:30pm 22.9 21.9 14.5 59 5.1 ENE 13 19 7 10 1015.3 1011.8 0.0
14/07:00pm 23.6 21.6 14.0 55 5.8 ENE 17 20 9 11 1015.1 1011.7 0.0
14/06:30pm 24.4 21.9 13.6 51 6.5 ENE 19 24 10 13 1014.8 1011.4 0.0
14/06:00pm 25.3 22.2 13.5 48 7.1 E 22 30 12 16 1014.5 1011.0 0.0
14/05:30pm 26.0 22.9 13.5 46 7.6 E 22 30 12 16 1014.2 1010.7 0.0
14/05:00pm 26.6 23.3 14.0 46 7.7 E 24 35 13 19 1013.9 1010.4 0.0
14/04:30pm 27.1 24.0 14.5 46 7.8 E 24 32 13 17 1013.7 1010.2 0.0
14/04:00pm 27.5 24.9 13.8 43 8.4 E 20 28 11 15 1013.8 1010.3 0.0
14/03:30pm 27.0 23.6 11.1 37 9.3 E 20 30 11 16 1014.0 1010.5 0.0
14/03:00pm 27.5 24.1 10.7 35 9.8 E 19 24 10 13 1014.2 1010.7 0.0
14/02:30pm 27.6 24.3 10.8 35 9.8 ENE 19 28 10 15 1014.3 1010.8 0.0
14/02:00pm 26.9 24.6 12.9 42 8.4 ENE 17 24 9 13 1014.6 1011.2 0.0
14/01:30pm 26.5 23.1 10.6 37 9.2 ESE 19 28 10 15 1014.9 1011.5 0.0
14/01:00pm 26.7 24.7 13.8 45 7.9 ESE 17 26 9 14 1015.1 1011.7 0.0
14/12:30pm 26.1 24.8 13.6 46 7.6 ESE 13 22 7 12 1015.4 1011.9 0.0
14/12:00pm 25.1 23.5 13.9 49 6.8 SE 15 26 8 14 1015.7 1012.2 0.0
14/11:30am 24.6 23.3 13.8 51 6.5 NE 13 22 7 12 1016.0 1012.6 0.0
14/11:00am 24.0 23.0 13.5 52 6.3 NNE 11 22 6 12 1016.4 1013.0 0.0
14/10:30am 23.1 21.7 14.4 58 5.3 ENE 15 24 8 13 1016.6 1013.2 0.0
14/10:00am 22.3 21.5 13.9 59 5.0 ENE 11 22 6 12 1016.9 1013.4 0.0
14/09:30am 22.0 19.9 13.6 59 5.0 E 17 20 9 11 1017.0 1013.5 0.0
14/09:00am 21.6 20.0 15.0 66 4.0 ENE 17 22 9 12 1017.2 1013.7 0.0
14/08:30am 20.6 20.1 15.8 74 2.9 ENE 13 19 7 10 1017.4 1014.0 0.0
14/08:00am 20.0 19.9 16.0 78 2.5 NE 11 17 6 9 1017.6 1014.2 0.0
14/07:41am 19.3 18.5 15.0 76 2.6 ENE 13 17 7 9 1017.6 1014.2 0.0
14/07:30am 19.4 18.5 14.9 75 2.7 E 13 19 7 10 1017.6 1014.2 0.0
14/07:00am 18.4 18.2 15.8 85 1.6 E 11 17 6 9 1017.4 1014.0 0.0
14/06:32am 18.3 19.1 16.3 88 1.2 ENE 7 11 4 6 1017.5 1014.1 0.0
14/06:30am 18.1 18.5 16.4 90 1.0 ENE 9 11 5 6 1017.5 1014.1 0.0
14/06:00am 17.3 17.6 16.0 92 0.8 E 9 11 5 6 1017.1 1013.6 0.0
14/05:36am 17.1 17.9 16.3 95 0.5 ENE 7 9 4 5 1017.0 1013.5 0.0
14/05:30am 17.0 17.7 16.2 95 0.5 ENE 7 9 4 5 1017.1 1013.6 0.0
14/05:00am 16.9 17.4 16.6 98 0.2 ENE 9 13 5 7 1017.0 1013.5 0.0
14/04:30am 17.1 17.6 16.5 96 0.4 NE 9 11 5 6 1016.7 1013.3 0.0
14/04:00am 16.9 17.3 16.4 97 0.3 ENE 9 11 5 6 1016.5 1013.1 0.0
14/03:30am 17.2 17.0 16.6 96 0.4 ENE 13 15 7 8 1016.6 1013.2 0.0
14/03:00am 17.3 17.5 16.8 97 0.3 E 11 17 6 9 1016.6 1013.2 0.0
14/02:30am 17.3 17.1 16.7 96 0.4 ENE 13 17 7 9 1016.6 1013.2 0.0
14/02:00am 17.4 17.2 16.8 96 0.4 E 13 17 7 9 1016.6 1013.2 0.0
14/01:30am 17.4 17.2 16.6 95 0.5 E 13 20 7 11 1016.9 1013.4 0.0
14/01:00am 17.5 16.2 16.7 95 0.5 E 19 24 10 13 1017.0 1013.5 0.0
14/12:30am 17.6 16.2 16.5 93 0.7 E 19 26 10 14 1017.4 1014.0 0.0
14/12:00am 17.8 16.2 16.5 92 0.8 E 20 26 11 14 1017.6 1014.2 0.0
 
Date/Time
EST
Temp
°C
App
Temp
°C
Dew
Point
°C
Rel
Hum
%
Delta-T
°C
Wind Press
QNH
hPa
Press
MSL
hPa
Rain since
9am
mm
Dir  Spd
km/h
Gust
km/h
Spd
kts
Gust
kts
13/11:30pm 17.9 16.2 16.2 90 1.0 E 20 28 11 15 1017.8 1014.4 0.0
13/11:00pm 18.2 16.7 16.4 89 1.1 E 19 24 10 13 1018.2 1014.8 0.0
13/10:30pm 18.3 16.8 16.3 88 1.2 E 19 24 10 13 1018.4 1015.0 0.0
13/10:00pm 18.5 17.8 16.3 87 1.3 E 15 19 8 10 1018.7 1015.2 0.0
13/09:30pm 18.8 16.3 16.2 85 1.6 E 24 35 13 19 1018.2 1014.8 0.0

Other Formats:

Comma delimited format used in spreadsheet applications
http://www.bom.gov.au/fwo/IDQ60801/IDQ60801.95551.axf

JavaScript Object Notation format (JSON) in row-major order
http://www.bom.gov.au/fwo/IDQ60801/IDQ60801.95551.json